sensor_id;sensor_type;location;lat;lon;timestamp;pressure;altitude;pressure_sealevel;temperature;humidity
27958;BME280;15295;42.658;23.374;2022-11-02T00:02:16;95248.22;;;18.15;38.25
27958;BME280;15295;42.658;23.374;2022-11-02T00:04:42;95255.88;;;18.08;38.53
27958;BME280;15295;42.658;23.374;2022-11-02T00:07:07;95234.44;;;17.96;38.67
27958;BME280;15295;42.658;23.374;2022-11-02T00:09:32;95238.41;;;17.95;38.62
27958;BME280;15295;42.658;23.374;2022-11-02T00:12:11;95253.81;;;18.12;38.65
27958;BME280;15295;42.658;23.374;2022-11-02T00:14:36;95249.22;;;18.05;38.63
27958;BME280;15295;42.658;23.374;2022-11-02T00:17:02;95248.88;;;18.03;38.64
27958;BME280;15295;42.658;23.374;2022-11-02T00:19:28;95246.28;;;17.96;38.67
27958;BME280;15295;42.658;23.374;2022-11-02T00:21:54;95244.38;;;17.93;38.61
27958;BME280;15295;42.658;23.374;2022-11-02T00:24:21;95250.09;;;18.02;38.86
27958;BME280;15295;42.658;23.374;2022-11-02T00:26:46;95251.38;;;17.98;39.00
27958;BME280;15295;42.658;23.374;2022-11-02T00:29:12;95239.31;;;17.88;38.98
27958;BME280;15295;42.658;23.374;2022-11-02T00:31:37;95251.03;;;17.96;39.18
27958;BME280;15295;42.658;23.374;2022-11-02T00:34:03;95245.28;;;17.87;39.16
27958;BME280;15295;42.658;23.374;2022-11-02T00:36:28;95237.50;;;17.82;39.15
27958;BME280;15295;42.658;23.374;2022-11-02T00:38:55;95247.72;;;17.85;39.18
27958;BME280;15295;42.658;23.374;2022-11-02T00:41:20;95251.31;;;17.82;39.07
27958;BME280;15295;42.658;23.374;2022-11-02T00:43:50;95251.63;;;17.67;38.80
27958;BME280;15295;42.658;23.374;2022-11-02T00:46:15;95236.97;;;17.70;38.62
27958;BME280;15295;42.658;23.374;2022-11-02T00:48:41;95232.63;;;17.69;38.36
27958;BME280;15295;42.658;23.374;2022-11-02T00:51:06;95231.44;;;17.70;38.76
27958;BME280;15295;42.658;23.374;2022-11-02T00:53:31;95229.88;;;17.50;38.96
27958;BME280;15295;42.658;23.374;2022-11-02T00:55:57;95240.88;;;17.30;39.63
27958;BME280;15295;42.658;23.374;2022-11-02T00:58:22;95226.66;;;17.32;39.59
27958;BME280;15295;42.658;23.374;2022-11-02T01:00:47;95238.44;;;17.36;39.92
27958;BME280;15295;42.658;23.374;2022-11-02T01:03:16;95238.81;;;17.34;39.84
27958;BME280;15295;42.658;23.374;2022-11-02T01:05:41;95237.69;;;17.12;40.49
27958;BME280;15295;42.658;23.374;2022-11-02T01:08:07;95233.78;;;17.10;40.55
27958;BME280;15295;42.658;23.374;2022-11-02T01:10:32;95247.13;;;17.15;40.51
27958;BME280;15295;42.658;23.374;2022-11-02T01:13:00;95231.03;;;17.10;40.83
27958;BME280;15295;42.658;23.374;2022-11-02T01:15:25;95238.47;;;17.13;40.96
27958;BME280;15295;42.658;23.374;2022-11-02T01:18:03;95236.94;;;17.31;40.69
27958;BME280;15295;42.658;23.374;2022-11-02T01:20:30;95250.03;;;17.27;40.52
27958;BME280;15295;42.658;23.374;2022-11-02T01:22:56;95243.00;;;17.23;40.53
27958;BME280;15295;42.658;23.374;2022-11-02T01:25:23;95238.31;;;17.20;40.55
27958;BME280;15295;42.658;23.374;2022-11-02T01:27:49;95242.88;;;17.30;40.72
27958;BME280;15295;42.658;23.374;2022-11-02T01:30:15;95235.56;;;17.20;40.54
27958;BME280;15295;42.658;23.374;2022-11-02T01:32:41;95244.56;;;17.24;40.81
27958;BME280;15295;42.658;23.374;2022-11-02T01:35:06;95222.66;;;17.13;40.88
27958;BME280;15295;42.658;23.374;2022-11-02T01:37:32;95225.16;;;17.08;41.05
27958;BME280;15295;42.658;23.374;2022-11-02T01:39:57;95232.78;;;17.00;41.39
27958;BME280;15295;42.658;23.374;2022-11-02T01:42:25;95232.72;;;17.04;41.60
27958;BME280;15295;42.658;23.374;2022-11-02T01:44:53;95234.00;;;16.99;41.05
27958;BME280;15295;42.658;23.374;2022-11-02T01:47:23;95232.94;;;16.93;41.20
27958;BME280;15295;42.658;23.374;2022-11-02T01:49:54;95217.91;;;16.94;40.87
27958;BME280;15295;42.658;23.374;2022-11-02T01:52:28;95223.38;;;16.98;41.01
27958;BME280;15295;42.658;23.374;2022-11-02T01:55:17;95223.38;;;16.98;40.65
27958;BME280;15295;42.658;23.374;2022-11-02T01:57:59;95229.97;;;17.04;40.61
27958;BME280;15295;42.658;23.374;2022-11-02T02:00:27;95218.56;;;17.02;40.72
27958;BME280;15295;42.658;23.374;2022-11-02T02:02:54;95221.25;;;17.05;40.62
27958;BME280;15295;42.658;23.374;2022-11-02T02:05:28;95218.84;;;17.07;40.46
27958;BME280;15295;42.658;23.374;2022-11-02T02:07:55;95205.47;;;17.06;40.33
27958;BME280;15295;42.658;23.374;2022-11-02T02:10:21;95211.81;;;17.03;40.45
27958;BME280;15295;42.658;23.374;2022-11-02T02:12:54;95221.13;;;17.12;40.49
27958;BME280;15295;42.658;23.374;2022-11-02T02:15:36;95211.78;;;17.06;40.44
27958;BME280;15295;42.658;23.374;2022-11-02T02:18:11;95215.81;;;17.02;40.56
27958;BME280;15295;42.658;23.374;2022-11-02T02:21:41;95211.78;;;17.06;40.63
27958;BME280;15295;42.658;23.374;2022-11-02T02:26:53;95210.56;;;17.07;40.56
27958;BME280;15295;42.658;23.374;2022-11-02T02:29:29;95205.16;;;17.00;41.07
27958;BME280;15295;42.658;23.374;2022-11-02T02:32:10;95207.88;;;17.04;40.89
27958;BME280;15295;42.658;23.374;2022-11-02T02:37:16;95204.09;;;16.94;40.88
27958;BME280;15295;42.658;23.374;2022-11-02T02:39:53;95209.78;;;16.87;41.23
27958;BME280;15295;42.658;23.374;2022-11-02T02:42:24;95200.63;;;16.90;40.80
27958;BME280;15295;42.658;23.374;2022-11-02T02:45:17;95214.22;;;17.01;40.81
27958;BME280;15295;42.658;23.374;2022-11-02T02:48:22;95214.31;;;16.97;40.52
27958;BME280;15295;42.658;23.374;2022-11-02T02:51:08;95214.22;;;17.01;40.44
27958;BME280;15295;42.658;23.374;2022-11-02T02:53:50;95197.16;;;16.86;40.47
27958;BME280;15295;42.658;23.374;2022-11-02T02:56:20;95211.78;;;16.83;40.56
27958;BME280;15295;42.658;23.374;2022-11-02T02:58:51;95204.72;;;16.82;40.80
27958;BME280;15295;42.658;23.374;2022-11-02T03:01:20;95201.19;;;16.81;41.04
27958;BME280;15295;42.658;23.374;2022-11-02T03:03:46;95206.06;;;16.74;40.99
27958;BME280;15295;42.658;23.374;2022-11-02T03:06:21;95203.13;;;16.61;41.73
27958;BME280;15295;42.658;23.374;2022-11-02T03:09:04;95198.97;;;16.50;41.61
27958;BME280;15295;42.658;23.374;2022-11-02T03:11:33;95210.63;;;16.61;41.71
27958;BME280;15295;42.658;23.374;2022-11-02T03:14:06;95216.69;;;16.52;42.18
27958;BME280;15295;42.658;23.374;2022-11-02T03:19:41;95210.72;;;16.54;41.96
27958;BME280;15295;42.658;23.374;2022-11-02T03:22:33;95211.88;;;16.56;41.91
27958;BME280;15295;42.658;23.374;2022-11-02T03:25:26;95217.31;;;16.60;42.13
27958;BME280;15295;42.658;23.374;2022-11-02T03:30:38;95200.69;;;16.40;42.78
27958;BME280;15295;42.658;23.374;2022-11-02T03:36:05;95212.09;;;16.42;43.46
27958;BME280;15295;42.658;23.374;2022-11-02T03:41:05;95214.00;;;16.22;43.31
27958;BME280;15295;42.658;23.374;2022-11-02T03:43:34;95205.81;;;16.15;43.58
27958;BME280;15295;42.658;23.374;2022-11-02T03:46:02;95211.34;;;16.15;43.75
27958;BME280;15295;42.658;23.374;2022-11-02T03:48:39;95209.88;;;16.07;44.00
27958;BME280;15295;42.658;23.374;2022-11-02T03:51:10;95211.22;;;15.95;44.37
27958;BME280;15295;42.658;23.374;2022-11-02T03:53:42;95219.50;;;15.95;44.30
27958;BME280;15295;42.658;23.374;2022-11-02T03:56:24;95209.75;;;15.91;45.12
27958;BME280;15295;42.658;23.374;2022-11-02T03:58:51;95191.63;;;15.90;45.03
27958;BME280;15295;42.658;23.374;2022-11-02T04:01:17;95197.34;;;16.02;44.89
27958;BME280;15295;42.658;23.374;2022-11-02T04:03:44;95213.69;;;16.16;44.41
27958;BME280;15295;42.658;23.374;2022-11-02T04:06:10;95194.94;;;16.04;44.66
27958;BME280;15295;42.658;23.374;2022-11-02T04:08:40;95205.03;;;16.14;44.70
27958;BME280;15295;42.658;23.374;2022-11-02T04:11:07;95194.91;;;16.08;44.30
27958;BME280;15295;42.658;23.374;2022-11-02T04:13:51;95203.06;;;16.15;44.03
27958;BME280;15295;42.658;23.374;2022-11-02T04:16:36;95175.34;;;15.99;44.36
27958;BME280;15295;42.658;23.374;2022-11-02T04:19:02;95202.56;;;15.97;44.58
27958;BME280;15295;42.658;23.374;2022-11-02T04:21:51;95210.34;;;16.02;44.30
27958;BME280;15295;42.658;23.374;2022-11-02T04:24:39;95204.16;;;15.94;44.33
27958;BME280;15295;42.658;23.374;2022-11-02T04:27:26;95212.91;;;15.89;44.37
27958;BME280;15295;42.658;23.374;2022-11-02T04:29:52;95198.19;;;15.73;44.89
27958;BME280;15295;42.658;23.374;2022-11-02T04:32:18;95203.47;;;15.60;45.30
27958;BME280;15295;42.658;23.374;2022-11-02T04:35:03;95200.06;;;15.49;45.53
27958;BME280;15295;42.658;23.374;2022-11-02T04:37:30;95205.50;;;15.56;45.51
27958;BME280;15295;42.658;23.374;2022-11-02T04:40:14;95197.78;;;15.40;45.65
27958;BME280;15295;42.658;23.374;2022-11-02T04:42:39;95201.06;;;15.32;46.14
27958;BME280;15295;42.658;23.374;2022-11-02T04:45:05;95205.78;;;15.31;46.17
27958;BME280;15295;42.658;23.374;2022-11-02T04:47:34;95218.72;;;15.34;46.16
27958;BME280;15295;42.658;23.374;2022-11-02T04:50:00;95205.00;;;15.31;45.85
27958;BME280;15295;42.658;23.374;2022-11-02T04:52:26;95213.22;;;15.34;45.84
27958;BME280;15295;42.658;23.374;2022-11-02T04:54:55;95215.97;;;15.34;46.01
27958;BME280;15295;42.658;23.374;2022-11-02T04:57:21;95213.22;;;15.34;45.88
27958;BME280;15295;42.658;23.374;2022-11-02T04:59:47;95192.50;;;15.23;46.34
27958;BME280;15295;42.658;23.374;2022-11-02T05:02:12;95209.66;;;15.37;46.39
27958;BME280;15295;42.658;23.374;2022-11-02T05:04:37;95211.25;;;15.35;46.56
27958;BME280;15295;42.658;23.374;2022-11-02T05:07:10;95213.59;;;15.36;46.57
27958;BME280;15295;42.658;23.374;2022-11-02T05:09:35;95205.00;;;15.31;46.68
27958;BME280;15295;42.658;23.374;2022-11-02T05:12:01;95225.41;;;15.33;46.82
27958;BME280;15295;42.658;23.374;2022-11-02T05:17:00;95225.78;;;15.35;46.68
27958;BME280;15295;42.658;23.374;2022-11-02T05:21:53;95224.59;;;15.36;46.70
27958;BME280;15295;42.658;23.374;2022-11-02T05:24:32;95228.97;;;15.34;46.60
27958;BME280;15295;42.658;23.374;2022-11-02T05:32:31;95235.66;;;15.33;46.32
27958;BME280;15295;42.658;23.374;2022-11-02T05:34:56;95240.75;;;15.34;46.31
27958;BME280;15295;42.658;23.374;2022-11-02T05:37:45;95235.19;;;15.41;46.39
27958;BME280;15295;42.658;23.374;2022-11-02T05:40:11;95232.81;;;15.43;46.03
27958;BME280;15295;42.658;23.374;2022-11-02T05:42:36;95247.22;;;15.55;45.99
27958;BME280;15295;42.658;23.374;2022-11-02T05:45:01;95243.22;;;15.59;46.04
27958;BME280;15295;42.658;23.374;2022-11-02T05:47:27;95248.66;;;15.66;45.66
27958;BME280;15295;42.658;23.374;2022-11-02T05:49:52;95255.69;;;15.71;45.92
27958;BME280;15295;42.658;23.374;2022-11-02T05:52:18;95253.66;;;15.75;45.61
27958;BME280;15295;42.658;23.374;2022-11-02T05:54:43;95264.59;;;15.82;45.32
27958;BME280;15295;42.658;23.374;2022-11-02T05:57:13;95271.25;;;15.84;45.30
27958;BME280;15295;42.658;23.374;2022-11-02T05:59:41;95272.81;;;15.85;45.10
27958;BME280;15295;42.658;23.374;2022-11-02T06:02:06;95283.75;;;15.92;45.28
27958;BME280;15295;42.658;23.374;2022-11-02T06:04:32;95266.50;;;15.85;44.99
27958;BME280;15295;42.658;23.374;2022-11-02T06:06:59;95278.19;;;15.96;45.25
27958;BME280;15295;42.658;23.374;2022-11-02T06:09:24;95277.38;;;15.95;45.35
27958;BME280;15295;42.658;23.374;2022-11-02T06:11:50;95282.50;;;15.97;45.49
27958;BME280;15295;42.658;23.374;2022-11-02T06:14:15;95291.50;;;16.01;45.44
27958;BME280;15295;42.658;23.374;2022-11-02T06:19:57;95283.09;;;16.11;44.96
27958;BME280;15295;42.658;23.374;2022-11-02T06:22:22;95282.16;;;16.21;44.93
27958;BME280;15295;42.658;23.374;2022-11-02T06:24:48;95283.22;;;16.28;44.92
27958;BME280;15295;42.658;23.374;2022-11-02T06:27:19;95287.78;;;16.41;44.82
27958;BME280;15295;42.658;23.374;2022-11-02T06:29:45;95279.38;;;16.48;44.59
27958;BME280;15295;42.658;23.374;2022-11-02T06:32:10;95280.94;;;16.49;44.44
27958;BME280;15295;42.658;23.374;2022-11-02T06:34:35;95289.44;;;16.62;44.68
27958;BME280;15295;42.658;23.374;2022-11-02T06:37:01;95279.50;;;16.68;44.86
27958;BME280;15295;42.658;23.374;2022-11-02T06:39:38;95285.31;;;16.73;45.11
27958;BME280;15295;42.658;23.374;2022-11-02T06:45:00;95294.44;;;16.93;45.17
27958;BME280;15295;42.658;23.374;2022-11-02T06:47:31;95289.09;;;17.06;44.70
27958;BME280;15295;42.658;23.374;2022-11-02T06:55:22;95273.28;;;17.30;44.05
27958;BME280;15295;42.658;23.374;2022-11-02T07:00:49;95284.88;;;17.64;43.93
27958;BME280;15295;42.658;23.374;2022-11-02T07:03:14;95279.41;;;17.80;43.66
27958;BME280;15295;42.658;23.374;2022-11-02T07:05:40;95285.50;;;17.91;43.31
27958;BME280;15295;42.658;23.374;2022-11-02T07:08:19;95261.50;;;18.04;42.74
27958;BME280;15295;42.658;23.374;2022-11-02T07:10:45;95282.28;;;18.28;42.81
27958;BME280;15295;42.658;23.374;2022-11-02T07:13:10;95282.47;;;18.73;42.55
27958;BME280;15295;42.658;23.374;2022-11-02T07:15:39;95280.88;;;19.37;42.72
27958;BME280;15295;42.658;23.374;2022-11-02T07:18:05;95285.19;;;20.08;41.27
27958;BME280;15295;42.658;23.374;2022-11-02T07:20:31;95279.16;;;20.50;39.11
27958;BME280;15295;42.658;23.374;2022-11-02T07:22:59;95284.34;;;20.99;37.92
27958;BME280;15295;42.658;23.374;2022-11-02T07:25:26;95269.97;;;21.25;37.13
27958;BME280;15295;42.658;23.374;2022-11-02T07:27:53;95284.75;;;21.57;36.54
27958;BME280;15295;42.658;23.374;2022-11-02T07:30:19;95282.84;;;21.88;35.92
27958;BME280;15295;42.658;23.374;2022-11-02T07:32:45;95286.22;;;22.26;35.34
27958;BME280;15295;42.658;23.374;2022-11-02T07:35:12;95280.69;;;22.66;34.53
27958;BME280;15295;42.658;23.374;2022-11-02T07:37:38;95275.84;;;22.88;34.42
27958;BME280;15295;42.658;23.374;2022-11-02T07:40:11;95271.00;;;23.37;33.82
27958;BME280;15295;42.658;23.374;2022-11-02T07:42:44;95284.63;;;23.81;32.73
27958;BME280;15295;42.658;23.374;2022-11-02T07:45:13;95275.34;;;23.93;32.62
27958;BME280;15295;42.658;23.374;2022-11-02T07:47:43;95274.25;;;24.17;31.72
27958;BME280;15295;42.658;23.374;2022-11-02T07:50:17;95271.50;;;24.59;31.94
27958;BME280;15295;42.658;23.374;2022-11-02T07:52:55;95280.41;;;25.14;31.21
27958;BME280;15295;42.658;23.374;2022-11-02T07:55:26;95276.09;;;25.60;30.49
27958;BME280;15295;42.658;23.374;2022-11-02T07:57:59;95277.06;;;25.95;29.60
27958;BME280;15295;42.658;23.374;2022-11-02T08:00:31;95269.75;;;26.13;28.92
27958;BME280;15295;42.658;23.374;2022-11-02T08:02:58;95265.59;;;26.37;28.98
27958;BME280;15295;42.658;23.374;2022-11-02T08:05:51;95272.88;;;26.73;28.04
27958;BME280;15295;42.658;23.374;2022-11-02T08:08:22;95278.25;;;26.91;28.23
27958;BME280;15295;42.658;23.374;2022-11-02T08:10:49;95271.41;;;27.12;27.76
27958;BME280;15295;42.658;23.374;2022-11-02T08:13:20;95270.69;;;27.32;27.22
27958;BME280;15295;42.658;23.374;2022-11-02T08:15:50;95255.41;;;27.53;26.64
27958;BME280;15295;42.658;23.374;2022-11-02T08:18:18;95264.59;;;27.94;26.04
27958;BME280;15295;42.658;23.374;2022-11-02T08:20:45;95256.97;;;28.20;26.14
27958;BME280;15295;42.658;23.374;2022-11-02T08:23:11;95246.72;;;28.43;25.52
27958;BME280;15295;42.658;23.374;2022-11-02T08:25:37;95252.69;;;28.81;25.25
27958;BME280;15295;42.658;23.374;2022-11-02T08:28:04;95257.69;;;28.97;25.84
27958;BME280;15295;42.658;23.374;2022-11-02T08:30:42;95255.25;;;29.16;24.88
27958;BME280;15295;42.658;23.374;2022-11-02T08:33:14;95245.75;;;29.14;24.46
27958;BME280;15295;42.658;23.374;2022-11-02T08:35:42;95243.91;;;29.05;24.60
27958;BME280;15295;42.658;23.374;2022-11-02T08:38:09;95245.13;;;29.30;24.42
27958;BME280;15295;42.658;23.374;2022-11-02T08:40:37;95246.78;;;29.58;24.31
27958;BME280;15295;42.658;23.374;2022-11-02T08:43:08;95245.88;;;29.78;24.02
27958;BME280;15295;42.658;23.374;2022-11-02T08:45:35;95238.50;;;29.92;23.62
27958;BME280;15295;42.658;23.374;2022-11-02T08:48:00;95242.41;;;30.27;23.21
27958;BME280;15295;42.658;23.374;2022-11-02T08:50:32;95232.47;;;30.48;22.76
27958;BME280;15295;42.658;23.374;2022-11-02T08:52:59;95240.91;;;30.54;22.78
27958;BME280;15295;42.658;23.374;2022-11-02T08:55:24;95236.28;;;30.45;22.56
27958;BME280;15295;42.658;23.374;2022-11-02T08:57:51;95238.09;;;30.37;22.67
27958;BME280;15295;42.658;23.374;2022-11-02T09:00:28;95221.44;;;30.51;22.26
27958;BME280;15295;42.658;23.374;2022-11-02T09:02:59;95233.47;;;30.40;22.49
27958;BME280;15295;42.658;23.374;2022-11-02T09:05:26;95226.56;;;30.46;23.00
27958;BME280;15295;42.658;23.374;2022-11-02T09:08:00;95231.44;;;30.79;22.69
27958;BME280;15295;42.658;23.374;2022-11-02T09:10:34;95225.56;;;30.94;22.49
27958;BME280;15295;42.658;23.374;2022-11-02T09:13:00;95231.69;;;31.20;21.96
27958;BME280;15295;42.658;23.374;2022-11-02T09:15:27;95219.81;;;31.38;22.21
27958;BME280;15295;42.658;23.374;2022-11-02T09:17:53;95216.38;;;31.73;22.12
27958;BME280;15295;42.658;23.374;2022-11-02T09:20:33;95231.38;;;32.09;21.52
27958;BME280;15295;42.658;23.374;2022-11-02T09:22:59;95215.25;;;32.39;20.81
27958;BME280;15295;42.658;23.374;2022-11-02T09:25:25;95219.63;;;32.40;20.81
27958;BME280;15295;42.658;23.374;2022-11-02T09:27:55;95214.66;;;32.51;21.02
27958;BME280;15295;42.658;23.374;2022-11-02T09:30:25;95214.03;;;32.69;20.37
27958;BME280;15295;42.658;23.374;2022-11-02T09:32:57;95222.13;;;32.54;20.58
27958;BME280;15295;42.658;23.374;2022-11-02T09:35:24;95210.31;;;32.80;20.63
27958;BME280;15295;42.658;23.374;2022-11-02T09:37:50;95198.91;;;32.91;20.19
27958;BME280;15295;42.658;23.374;2022-11-02T09:40:28;95197.22;;;33.31;19.98
27958;BME280;15295;42.658;23.374;2022-11-02T09:45:49;95185.34;;;33.57;19.96
27958;BME280;15295;42.658;23.374;2022-11-02T09:48:26;95181.06;;;33.69;19.64
27958;BME280;15295;42.658;23.374;2022-11-02T09:51:42;95183.31;;;33.76;19.39
27958;BME280;15295;42.658;23.374;2022-11-02T09:54:18;95188.91;;;34.00;19.28
27958;BME280;15295;42.658;23.374;2022-11-02T09:56:48;95174.97;;;34.21;19.23
27958;BME280;15295;42.658;23.374;2022-11-02T09:59:16;95178.41;;;34.13;19.17
27958;BME280;15295;42.658;23.374;2022-11-02T10:02:10;95179.59;;;34.24;19.12
27958;BME280;15295;42.658;23.374;2022-11-02T10:07:19;95162.66;;;34.81;18.68
27958;BME280;15295;42.658;23.374;2022-11-02T10:09:56;95154.59;;;34.85;18.58
27958;BME280;15295;42.658;23.374;2022-11-02T10:12:38;95167.78;;;35.28;18.45
27958;BME280;15295;42.658;23.374;2022-11-02T10:15:20;95164.16;;;35.40;18.26
27958;BME280;15295;42.658;23.374;2022-11-02T10:17:50;95144.59;;;35.24;18.22
27958;BME280;15295;42.658;23.374;2022-11-02T10:20:35;95135.72;;;35.14;18.16
27958;BME280;15295;42.658;23.374;2022-11-02T10:23:06;95141.09;;;35.18;18.07
27958;BME280;15295;42.658;23.374;2022-11-02T10:25:33;95148.94;;;35.12;18.23
27958;BME280;15295;42.658;23.374;2022-11-02T10:28:23;95151.38;;;35.34;18.17
27958;BME280;15295;42.658;23.374;2022-11-02T10:31:02;95142.75;;;35.52;17.93
27958;BME280;15295;42.658;23.374;2022-11-02T10:33:51;95116.34;;;35.78;17.90
27958;BME280;15295;42.658;23.374;2022-11-02T10:36:41;95133.06;;;36.28;17.27
27958;BME280;15295;42.658;23.374;2022-11-02T10:39:32;95122.53;;;36.57;16.96
27958;BME280;15295;42.658;23.374;2022-11-02T10:47:32;95128.13;;;37.11;16.77
27958;BME280;15295;42.658;23.374;2022-11-02T10:53:01;95110.28;;;37.39;16.29
27958;BME280;15295;42.658;23.374;2022-11-02T10:55:44;95114.38;;;37.59;16.14
27958;BME280;15295;42.658;23.374;2022-11-02T10:58:18;95106.81;;;37.61;15.85
27958;BME280;15295;42.658;23.374;2022-11-02T11:00:47;95103.44;;;37.78;15.67
27958;BME280;15295;42.658;23.374;2022-11-02T11:03:14;95104.63;;;37.82;15.57
27958;BME280;15295;42.658;23.374;2022-11-02T11:08:41;95095.41;;;38.12;15.25
27958;BME280;15295;42.658;23.374;2022-11-02T11:11:24;95096.34;;;38.22;15.32
27958;BME280;15295;42.658;23.374;2022-11-02T11:14:27;95087.47;;;38.26;15.43
27958;BME280;15295;42.658;23.374;2022-11-02T11:16:59;95082.72;;;38.36;15.29
27958;BME280;15295;42.658;23.374;2022-11-02T11:19:47;95081.19;;;38.50;14.90
27958;BME280;15295;42.658;23.374;2022-11-02T11:22:40;95071.66;;;38.47;14.65
27958;BME280;15295;42.658;23.374;2022-11-02T11:32:53;95051.13;;;38.49;14.30
27958;BME280;15295;42.658;23.374;2022-11-02T11:35:20;95065.78;;;38.53;14.30
27958;BME280;15295;42.658;23.374;2022-11-02T11:37:51;95050.34;;;38.26;13.93
27958;BME280;15295;42.658;23.374;2022-11-02T11:40:20;95034.19;;;37.77;14.36
27958;BME280;15295;42.658;23.374;2022-11-02T11:43:07;95046.38;;;37.78;14.28
27958;BME280;15295;42.658;23.374;2022-11-02T11:45:59;95036.84;;;37.75;14.23
27958;BME280;15295;42.658;23.374;2022-11-02T11:48:53;95035.91;;;37.73;13.91
27958;BME280;15295;42.658;23.374;2022-11-02T11:51:37;95019.16;;;37.69;13.84
27958;BME280;15295;42.658;23.374;2022-11-02T11:56:46;95032.75;;;37.99;13.73
27958;BME280;15295;42.658;23.374;2022-11-02T11:59:44;95030.25;;;37.80;13.78
27958;BME280;15295;42.658;23.374;2022-11-02T12:02:24;95008.66;;;37.57;13.18
27958;BME280;15295;42.658;23.374;2022-11-02T12:04:50;95024.09;;;37.26;13.37
27958;BME280;15295;42.658;23.374;2022-11-02T12:10:29;95012.66;;;37.18;13.63
27958;BME280;15295;42.658;23.374;2022-11-02T12:15:46;94999.09;;;37.39;13.01
27958;BME280;15295;42.658;23.374;2022-11-02T12:18:58;95001.22;;;37.54;13.01
27958;BME280;15295;42.658;23.374;2022-11-02T12:21:37;94996.09;;;37.52;12.95
27958;BME280;15295;42.658;23.374;2022-11-02T12:30:20;94985.31;;;37.23;13.37
27958;BME280;15295;42.658;23.374;2022-11-02T12:32:54;94988.13;;;37.15;13.16
27958;BME280;15295;42.658;23.374;2022-11-02T12:43:46;94977.41;;;36.93;13.60
27958;BME280;15295;42.658;23.374;2022-11-02T12:46:30;94984.81;;;36.96;13.78
27958;BME280;15295;42.658;23.374;2022-11-02T12:54:25;94981.63;;;37.07;13.69
27958;BME280;15295;42.658;23.374;2022-11-02T12:56:53;94964.25;;;36.90;13.84
27958;BME280;15295;42.658;23.374;2022-11-02T12:59:23;94973.56;;;36.90;13.88
27958;BME280;15295;42.658;23.374;2022-11-02T13:01:56;94969.97;;;36.90;14.12
27958;BME280;15295;42.658;23.374;2022-11-02T13:04:53;94966.59;;;36.71;13.97
27958;BME280;15295;42.658;23.374;2022-11-02T13:07:21;94952.09;;;36.33;13.98
27958;BME280;15295;42.658;23.374;2022-11-02T13:12:34;94956.69;;;36.15;13.82
27958;BME280;15295;42.658;23.374;2022-11-02T13:15:01;94967.47;;;36.09;14.26
27958;BME280;15295;42.658;23.374;2022-11-02T13:17:51;94949.91;;;35.98;14.24
27958;BME280;15295;42.658;23.374;2022-11-02T13:26:25;94950.63;;;35.44;14.68
27958;BME280;15295;42.658;23.374;2022-11-02T13:29:01;94938.69;;;35.25;14.55
27958;BME280;15295;42.658;23.374;2022-11-02T13:31:32;94957.69;;;35.30;14.93
27958;BME280;15295;42.658;23.374;2022-11-02T13:34:01;94949.00;;;35.15;14.73
27958;BME280;15295;42.658;23.374;2022-11-02T13:36:28;94957.84;;;34.98;15.04
27958;BME280;15295;42.658;23.374;2022-11-02T13:39:29;94957.53;;;34.75;15.04
27958;BME280;15295;42.658;23.374;2022-11-02T13:50:02;94946.44;;;33.62;16.09
27958;BME280;15295;42.658;23.374;2022-11-02T13:53:02;94947.31;;;33.19;16.38
27958;BME280;15295;42.658;23.374;2022-11-02T13:55:39;94939.09;;;32.97;16.53
27958;BME280;15295;42.658;23.374;2022-11-02T13:58:13;94943.78;;;32.76;16.82
27958;BME280;15295;42.658;23.374;2022-11-02T14:00:50;94904.19;;;32.28;17.11
27958;BME280;15295;42.658;23.374;2022-11-02T14:03:54;94948.38;;;32.31;17.14
27958;BME280;15295;42.658;23.374;2022-11-02T14:06:21;94940.59;;;32.13;17.48
27958;BME280;15295;42.658;23.374;2022-11-02T14:09:03;94940.56;;;31.88;17.47
27958;BME280;15295;42.658;23.374;2022-11-02T14:14:06;94948.75;;;31.62;17.92
27958;BME280;15295;42.658;23.374;2022-11-02T14:27:01;94944.88;;;30.84;18.40
27958;BME280;15295;42.658;23.374;2022-11-02T14:49:00;94940.28;;;29.57;19.90
27958;BME280;15295;42.658;23.374;2022-11-02T14:51:31;94946.19;;;29.48;20.10
27958;BME280;15295;42.658;23.374;2022-11-02T14:54:16;94953.09;;;29.36;20.29
27958;BME280;15295;42.658;23.374;2022-11-02T14:56:55;94954.34;;;29.18;20.42
27958;BME280;15295;42.658;23.374;2022-11-02T14:59:38;94956.84;;;29.05;20.72
27958;BME280;15295;42.658;23.374;2022-11-02T15:02:50;94964.22;;;28.91;20.87
27958;BME280;15295;42.658;23.374;2022-11-02T15:05:40;94950.09;;;28.69;21.32
27958;BME280;15295;42.658;23.374;2022-11-02T15:08:30;94959.03;;;28.57;21.19
27958;BME280;15295;42.658;23.374;2022-11-02T15:10:56;94962.75;;;28.43;21.55
27958;BME280;15295;42.658;23.374;2022-11-02T15:13:32;94962.41;;;28.30;21.53
27958;BME280;15295;42.658;23.374;2022-11-02T15:18:35;94959.91;;;27.95;22.00
27958;BME280;15295;42.658;23.374;2022-11-02T15:26:04;94950.97;;;27.60;22.36
27958;BME280;15295;42.658;23.374;2022-11-02T15:28:32;94968.34;;;27.58;22.34
27958;BME280;15295;42.658;23.374;2022-11-02T15:31:03;94957.72;;;27.42;22.78
27958;BME280;15295;42.658;23.374;2022-11-02T15:33:38;94958.47;;;27.37;22.91
27958;BME280;15295;42.658;23.374;2022-11-02T15:36:16;94978.28;;;27.33;23.35
27958;BME280;15295;42.658;23.374;2022-11-02T15:38:48;94981.75;;;27.23;23.78
27958;BME280;15295;42.658;23.374;2022-11-02T15:41:30;94977.81;;;27.09;23.72
27958;BME280;15295;42.658;23.374;2022-11-02T16:01:32;95000.03;;;26.47;24.66
27958;BME280;15295;42.658;23.374;2022-11-02T16:04:01;95003.50;;;26.42;24.83
27958;BME280;15295;42.658;23.374;2022-11-02T16:06:40;95008.50;;;26.32;25.14
27958;BME280;15295;42.658;23.374;2022-11-02T16:15:10;94998.22;;;26.09;25.13